sensor_id;sensor_type;location;lat;lon;timestamp;pressure;altitude;pressure_sealevel;temperature;humidity
35519;BME280;21627;48.216;16.482;2024-01-30T00:02:19;101721.25;;;1.50;100.00
35519;BME280;21627;48.216;16.482;2024-01-30T00:04:46;101713.28;;;1.45;100.00
35519;BME280;21627;48.216;16.482;2024-01-30T00:07:13;101705.53;;;1.44;100.00
35519;BME280;21627;48.216;16.482;2024-01-30T00:09:40;101694.75;;;1.48;100.00
35519;BME280;21627;48.216;16.482;2024-01-30T00:12:08;101698.50;;;1.53;100.00
35519;BME280;21627;48.216;16.482;2024-01-30T00:14:35;101715.88;;;1.59;100.00
35519;BME280;21627;48.216;16.482;2024-01-30T00:17:02;101696.31;;;1.46;100.00
35519;BME280;21627;48.216;16.482;2024-01-30T00:19:30;101697.22;;;1.46;100.00
35519;BME280;21627;48.216;16.482;2024-01-30T00:21:57;101693.41;;;1.53;100.00
35519;BME280;21627;48.216;16.482;2024-01-30T00:24:24;101695.63;;;1.48;100.00
35519;BME280;21627;48.216;16.482;2024-01-30T00:26:51;101685.16;;;1.44;100.00
35519;BME280;21627;48.216;16.482;2024-01-30T00:29:19;101699.38;;;1.54;100.00
35519;BME280;21627;48.216;16.482;2024-01-30T00:31:46;101699.84;;;1.48;100.00
35519;BME280;21627;48.216;16.482;2024-01-30T00:34:13;101686.72;;;1.42;100.00
35519;BME280;21627;48.216;16.482;2024-01-30T00:36:41;101696.91;;;1.42;100.00
35519;BME280;21627;48.216;16.482;2024-01-30T00:39:08;101698.25;;;1.37;100.00
35519;BME280;21627;48.216;16.482;2024-01-30T00:41:36;101702.47;;;1.36;100.00
35519;BME280;21627;48.216;16.482;2024-01-30T00:44:03;101697.72;;;1.29;100.00
35519;BME280;21627;48.216;16.482;2024-01-30T00:46:31;101700.16;;;1.27;100.00
35519;BME280;21627;48.216;16.482;2024-01-30T00:48:58;101698.75;;;1.19;100.00
35519;BME280;21627;48.216;16.482;2024-01-30T00:51:25;101713.25;;;1.20;100.00
35519;BME280;21627;48.216;16.482;2024-01-30T00:53:52;101718.81;;;1.15;100.00
35519;BME280;21627;48.216;16.482;2024-01-30T00:56:19;101701.66;;;1.12;100.00
35519;BME280;21627;48.216;16.482;2024-01-30T00:58:46;101712.56;;;1.23;100.00
35519;BME280;21627;48.216;16.482;2024-01-30T01:01:13;101706.19;;;1.16;100.00
35519;BME280;21627;48.216;16.482;2024-01-30T01:03:41;101699.28;;;1.27;100.00
35519;BME280;21627;48.216;16.482;2024-01-30T01:06:11;101700.44;;;1.19;100.00
35519;BME280;21627;48.216;16.482;2024-01-30T01:08:38;101698.31;;;1.13;100.00
35519;BME280;21627;48.216;16.482;2024-01-30T01:11:05;101693.47;;;1.16;100.00
35519;BME280;21627;48.216;16.482;2024-01-30T01:13:32;101698.28;;;1.25;100.00
35519;BME280;21627;48.216;16.482;2024-01-30T01:15:59;101686.22;;;1.22;100.00
35519;BME280;21627;48.216;16.482;2024-01-30T01:18:27;101684.03;;;1.15;100.00
35519;BME280;21627;48.216;16.482;2024-01-30T01:20:54;101685.81;;;1.16;100.00
35519;BME280;21627;48.216;16.482;2024-01-30T01:23:21;101679.72;;;1.14;100.00
35519;BME280;21627;48.216;16.482;2024-01-30T01:25:48;101670.69;;;1.06;100.00
35519;BME280;21627;48.216;16.482;2024-01-30T01:28:15;101667.06;;;1.16;100.00
35519;BME280;21627;48.216;16.482;2024-01-30T01:30:42;101672.75;;;1.12;100.00
35519;BME280;21627;48.216;16.482;2024-01-30T01:33:10;101673.75;;;1.14;100.00
35519;BME280;21627;48.216;16.482;2024-01-30T01:35:37;101676.19;;;1.12;100.00
35519;BME280;21627;48.216;16.482;2024-01-30T01:38:04;101677.53;;;1.07;100.00
35519;BME280;21627;48.216;16.482;2024-01-30T01:40:31;101657.84;;;0.93;100.00
35519;BME280;21627;48.216;16.482;2024-01-30T01:42:58;101665.06;;;0.98;100.00
35519;BME280;21627;48.216;16.482;2024-01-30T01:45:25;101673.31;;;1.07;100.00
35519;BME280;21627;48.216;16.482;2024-01-30T01:47:53;101666.28;;;0.92;100.00
35519;BME280;21627;48.216;16.482;2024-01-30T01:50:21;101676.47;;;0.92;100.00
35519;BME280;21627;48.216;16.482;2024-01-30T01:52:50;101661.06;;;0.90;100.00
35519;BME280;21627;48.216;16.482;2024-01-30T01:55:21;101648.59;;;0.81;100.00
35519;BME280;21627;48.216;16.482;2024-01-30T01:57:49;101658.63;;;0.92;100.00
35519;BME280;21627;48.216;16.482;2024-01-30T02:00:17;101660.19;;;0.90;100.00
35519;BME280;21627;48.216;16.482;2024-01-30T02:02:46;101668.63;;;0.89;100.00
35519;BME280;21627;48.216;16.482;2024-01-30T02:05:15;101664.88;;;0.83;100.00
35519;BME280;21627;48.216;16.482;2024-01-30T02:07:43;101662.31;;;0.83;100.00
35519;BME280;21627;48.216;16.482;2024-01-30T02:10:11;101668.47;;;0.99;100.00
35519;BME280;21627;48.216;16.482;2024-01-30T02:12:40;101667.72;;;0.88;100.00
35519;BME280;21627;48.216;16.482;2024-01-30T02:15:07;101661.53;;;0.84;100.00
35519;BME280;21627;48.216;16.482;2024-01-30T02:17:35;101670.50;;;0.79;100.00
35519;BME280;21627;48.216;16.482;2024-01-30T02:20:02;101653.09;;;0.85;100.00
35519;BME280;21627;48.216;16.482;2024-01-30T02:22:32;101662.75;;;0.90;100.00
35519;BME280;21627;48.216;16.482;2024-01-30T02:25:00;101653.16;;;0.74;100.00
35519;BME280;21627;48.216;16.482;2024-01-30T02:27:28;101636.75;;;0.70;100.00
35519;BME280;21627;48.216;16.482;2024-01-30T02:29:55;101647.75;;;0.69;100.00
35519;BME280;21627;48.216;16.482;2024-01-30T02:32:22;101649.72;;;0.73;100.00
35519;BME280;21627;48.216;16.482;2024-01-30T02:34:49;101637.69;;;0.59;100.00
35519;BME280;21627;48.216;16.482;2024-01-30T02:37:17;101643.19;;;0.65;100.00
35519;BME280;21627;48.216;16.482;2024-01-30T02:39:44;101644.97;;;0.66;100.00
35519;BME280;21627;48.216;16.482;2024-01-30T02:42:11;101656.38;;;0.71;100.00
35519;BME280;21627;48.216;16.482;2024-01-30T02:44:39;101654.50;;;0.69;100.00
35519;BME280;21627;48.216;16.482;2024-01-30T02:47:06;101652.63;;;0.66;100.00
35519;BME280;21627;48.216;16.482;2024-01-30T02:49:33;101658.34;;;0.75;100.00
35519;BME280;21627;48.216;16.482;2024-01-30T02:52:00;101636.69;;;0.57;100.00
35519;BME280;21627;48.216;16.482;2024-01-30T02:54:27;101649.63;;;0.60;100.00
35519;BME280;21627;48.216;16.482;2024-01-30T02:56:54;101645.44;;;0.49;100.00
35519;BME280;21627;48.216;16.482;2024-01-30T02:59:21;101658.59;;;0.55;100.00
35519;BME280;21627;48.216;16.482;2024-01-30T03:01:49;101657.38;;;0.61;100.00
35519;BME280;21627;48.216;16.482;2024-01-30T03:04:16;101653.97;;;0.61;100.00
35519;BME280;21627;48.216;16.482;2024-01-30T03:06:46;101656.06;;;0.55;100.00
35519;BME280;21627;48.216;16.482;2024-01-30T03:09:19;101638.47;;;0.46;100.00
35519;BME280;21627;48.216;16.482;2024-01-30T03:11:46;101643.56;;;0.46;100.00
35519;BME280;21627;48.216;16.482;2024-01-30T03:14:13;101646.88;;;0.45;100.00
35519;BME280;21627;48.216;16.482;2024-01-30T03:16:40;101646.00;;;0.45;100.00
35519;BME280;21627;48.216;16.482;2024-01-30T03:19:07;101635.28;;;0.37;100.00
35519;BME280;21627;48.216;16.482;2024-01-30T03:21:36;101651.63;;;0.52;100.00
35519;BME280;21627;48.216;16.482;2024-01-30T03:24:03;101638.69;;;0.49;100.00
35519;BME280;21627;48.216;16.482;2024-01-30T03:26:30;101639.56;;;0.50;100.00
35519;BME280;21627;48.216;16.482;2024-01-30T03:28:58;101643.44;;;0.56;100.00
35519;BME280;21627;48.216;16.482;2024-01-30T03:31:25;101643.53;;;0.58;100.00
35519;BME280;21627;48.216;16.482;2024-01-30T03:33:52;101632.28;;;0.42;100.00
35519;BME280;21627;48.216;16.482;2024-01-30T03:36:20;101637.47;;;0.44;100.00
35519;BME280;21627;48.216;16.482;2024-01-30T03:38:47;101613.72;;;0.32;100.00
35519;BME280;21627;48.216;16.482;2024-01-30T03:41:14;101629.84;;;0.44;100.00
35519;BME280;21627;48.216;16.482;2024-01-30T03:43:41;101644.56;;;0.36;100.00
35519;BME280;21627;48.216;16.482;2024-01-30T03:46:08;101628.97;;;0.43;100.00
35519;BME280;21627;48.216;16.482;2024-01-30T03:48:36;101631.72;;;0.35;100.00
35519;BME280;21627;48.216;16.482;2024-01-30T03:51:03;101628.63;;;0.27;100.00
35519;BME280;21627;48.216;16.482;2024-01-30T03:53:31;101636.81;;;0.35;100.00
35519;BME280;21627;48.216;16.482;2024-01-30T03:55:58;101625.75;;;0.22;100.00
35519;BME280;21627;48.216;16.482;2024-01-30T03:58:25;101637.06;;;0.26;100.00
35519;BME280;21627;48.216;16.482;2024-01-30T04:00:52;101637.28;;;0.29;100.00
35519;BME280;21627;48.216;16.482;2024-01-30T04:03:19;101623.34;;;0.24;100.00
35519;BME280;21627;48.216;16.482;2024-01-30T04:05:47;101633.94;;;0.30;100.00
35519;BME280;21627;48.216;16.482;2024-01-30T04:08:14;101623.88;;;0.20;100.00
35519;BME280;21627;48.216;16.482;2024-01-30T04:10:41;101639.16;;;0.20;100.00
35519;BME280;21627;48.216;16.482;2024-01-30T04:13:08;101632.19;;;0.17;100.00
35519;BME280;21627;48.216;16.482;2024-01-30T04:15:39;101633.50;;;0.12;100.00
35519;BME280;21627;48.216;16.482;2024-01-30T04:18:06;101633.41;;;0.11;100.00
35519;BME280;21627;48.216;16.482;2024-01-30T04:20:34;101643.03;;;0.15;100.00
35519;BME280;21627;48.216;16.482;2024-01-30T04:23:01;101627.88;;;0.05;100.00
35519;BME280;21627;48.216;16.482;2024-01-30T04:25:28;101640.16;;;0.10;100.00
35519;BME280;21627;48.216;16.482;2024-01-30T04:27:55;101621.47;;;0.10;100.00
35519;BME280;21627;48.216;16.482;2024-01-30T04:30:22;101629.22;;;0.11;100.00
35519;BME280;21627;48.216;16.482;2024-01-30T04:32:49;101637.38;;;0.07;100.00
35519;BME280;21627;48.216;16.482;2024-01-30T04:35:16;101621.47;;;-0.02;100.00
35519;BME280;21627;48.216;16.482;2024-01-30T04:37:44;101628.44;;;0.01;100.00
35519;BME280;21627;48.216;16.482;2024-01-30T04:40:11;101638.97;;;0.05;100.00
35519;BME280;21627;48.216;16.482;2024-01-30T04:42:38;101633.63;;;-0.10;100.00
35519;BME280;21627;48.216;16.482;2024-01-30T04:45:06;101626.88;;;-0.09;100.00
35519;BME280;21627;48.216;16.482;2024-01-30T04:47:33;101644.78;;;-0.08;100.00
35519;BME280;21627;48.216;16.482;2024-01-30T04:50:01;101636.06;;;-0.11;100.00
35519;BME280;21627;48.216;16.482;2024-01-30T04:52:29;101639.94;;;-0.05;100.00
35519;BME280;21627;48.216;16.482;2024-01-30T04:54:56;101629.41;;;-0.21;100.00
35519;BME280;21627;48.216;16.482;2024-01-30T04:57:24;101631.50;;;-0.15;100.00
35519;BME280;21627;48.216;16.482;2024-01-30T04:59:51;101641.66;;;-0.15;100.00
35519;BME280;21627;48.216;16.482;2024-01-30T05:02:18;101640.78;;;-0.16;100.00
35519;BME280;21627;48.216;16.482;2024-01-30T05:04:45;101629.75;;;-0.16;100.00
35519;BME280;21627;48.216;16.482;2024-01-30T05:07:12;101627.75;;;-0.09;100.00
35519;BME280;21627;48.216;16.482;2024-01-30T05:09:39;101611.72;;;-0.19;100.00
35519;BME280;21627;48.216;16.482;2024-01-30T05:12:07;101629.97;;;-0.13;100.00
35519;BME280;21627;48.216;16.482;2024-01-30T05:14:34;101637.59;;;-0.13;100.00
35519;BME280;21627;48.216;16.482;2024-01-30T05:17:01;101635.06;;;-0.13;100.00
35519;BME280;21627;48.216;16.482;2024-01-30T05:19:30;101620.38;;;-0.17;100.00
35519;BME280;21627;48.216;16.482;2024-01-30T05:21:57;101640.25;;;-0.12;100.00
35519;BME280;21627;48.216;16.482;2024-01-30T05:24:24;101631.19;;;-0.20;100.00
35519;BME280;21627;48.216;16.482;2024-01-30T05:26:53;101627.53;;;-0.24;100.00
35519;BME280;21627;48.216;16.482;2024-01-30T05:29:21;101637.69;;;-0.24;100.00
35519;BME280;21627;48.216;16.482;2024-01-30T05:31:48;101640.34;;;-0.22;100.00
35519;BME280;21627;48.216;16.482;2024-01-30T05:34:16;101630.47;;;-0.41;100.00
35519;BME280;21627;48.216;16.482;2024-01-30T05:36:43;101642.00;;;-0.34;100.00
35519;BME280;21627;48.216;16.482;2024-01-30T05:39:10;101640.75;;;-0.39;100.00
35519;BME280;21627;48.216;16.482;2024-01-30T05:41:37;101642.31;;;-0.41;100.00
35519;BME280;21627;48.216;16.482;2024-01-30T05:44:05;101638.31;;;-0.38;100.00
35519;BME280;21627;48.216;16.482;2024-01-30T05:46:33;101648.06;;;-0.32;100.00
35519;BME280;21627;48.216;16.482;2024-01-30T05:49:00;101648.97;;;-0.32;100.00
35519;BME280;21627;48.216;16.482;2024-01-30T05:51:27;101648.38;;;-0.39;100.00
35519;BME280;21627;48.216;16.482;2024-01-30T05:53:55;101634.25;;;-0.48;100.00
35519;BME280;21627;48.216;16.482;2024-01-30T05:56:22;101643.25;;;-0.51;100.00
35519;BME280;21627;48.216;16.482;2024-01-30T05:58:49;101641.28;;;-0.55;100.00
35519;BME280;21627;48.216;16.482;2024-01-30T06:01:17;101646.69;;;-0.51;100.00
35519;BME280;21627;48.216;16.482;2024-01-30T06:03:44;101639.31;;;-0.48;100.00
35519;BME280;21627;48.216;16.482;2024-01-30T06:06:12;101653.00;;;-0.46;100.00
35519;BME280;21627;48.216;16.482;2024-01-30T06:08:39;101645.38;;;-0.46;100.00
35519;BME280;21627;48.216;16.482;2024-01-30T06:11:09;101657.91;;;-0.37;100.00
35519;BME280;21627;48.216;16.482;2024-01-30T06:13:36;101645.94;;;-0.50;100.00
35519;BME280;21627;48.216;16.482;2024-01-30T06:16:04;101648.47;;;-0.50;100.00
35519;BME280;21627;48.216;16.482;2024-01-30T06:18:31;101648.69;;;-0.47;100.00
35519;BME280;21627;48.216;16.482;2024-01-30T06:20:58;101655.44;;;-0.47;100.00
35519;BME280;21627;48.216;16.482;2024-01-30T06:23:25;101644.16;;;-0.51;100.00
35519;BME280;21627;48.216;16.482;2024-01-30T06:25:52;101642.38;;;-0.52;100.00
35519;BME280;21627;48.216;16.482;2024-01-30T06:28:19;101656.19;;;-0.48;100.00
35519;BME280;21627;48.216;16.482;2024-01-30T06:30:47;101654.78;;;-0.45;100.00
35519;BME280;21627;48.216;16.482;2024-01-30T06:33:14;101662.75;;;-0.40;100.00
35519;BME280;21627;48.216;16.482;2024-01-30T06:35:41;101664.34;;;-0.30;100.00
35519;BME280;21627;48.216;16.482;2024-01-30T06:38:11;101666.75;;;-0.32;100.00
35519;BME280;21627;48.216;16.482;2024-01-30T06:40:38;101667.84;;;-0.28;100.00
35519;BME280;21627;48.216;16.482;2024-01-30T06:43:05;101667.53;;;-0.33;100.00
35519;BME280;21627;48.216;16.482;2024-01-30T06:45:32;101671.84;;;-0.32;100.00
35519;BME280;21627;48.216;16.482;2024-01-30T06:48:00;101666.00;;;-0.19;100.00
35519;BME280;21627;48.216;16.482;2024-01-30T06:50:27;101671.53;;;-0.25;100.00
35519;BME280;21627;48.216;16.482;2024-01-30T06:52:54;101668.75;;;-0.28;100.00
35519;BME280;21627;48.216;16.482;2024-01-30T06:55:21;101666.66;;;-0.22;100.00
35519;BME280;21627;48.216;16.482;2024-01-30T06:57:48;101671.88;;;-0.20;100.00
35519;BME280;21627;48.216;16.482;2024-01-30T07:00:18;101678.94;;;-0.16;100.00
35519;BME280;21627;48.216;16.482;2024-01-30T07:02:46;101667.66;;;-0.19;100.00
35519;BME280;21627;48.216;16.482;2024-01-30T07:05:13;101676.28;;;-0.17;100.00
35519;BME280;21627;48.216;16.482;2024-01-30T07:07:41;101677.03;;;-0.18;100.00
35519;BME280;21627;48.216;16.482;2024-01-30T07:10:08;101682.59;;;-0.12;100.00
35519;BME280;21627;48.216;16.482;2024-01-30T07:12:36;101687.13;;;-0.08;100.00
35519;BME280;21627;48.216;16.482;2024-01-30T07:15:04;101684.13;;;-0.03;100.00
35519;BME280;21627;48.216;16.482;2024-01-30T07:17:35;101687.72;;;0.11;100.00
35519;BME280;21627;48.216;16.482;2024-01-30T07:20:03;101691.03;;;0.10;100.00
35519;BME280;21627;48.216;16.482;2024-01-30T07:22:31;101685.81;;;0.09;100.00
35519;BME280;21627;48.216;16.482;2024-01-30T07:24:58;101698.31;;;0.17;100.00
35519;BME280;21627;48.216;16.482;2024-01-30T07:27:25;101693.78;;;0.25;100.00
35519;BME280;21627;48.216;16.482;2024-01-30T07:29:52;101694.47;;;0.34;100.00
35519;BME280;21627;48.216;16.482;2024-01-30T07:32:19;101691.47;;;0.40;100.00
35519;BME280;21627;48.216;16.482;2024-01-30T07:34:46;101693.59;;;0.34;100.00
35519;BME280;21627;48.216;16.482;2024-01-30T07:37:32;101709.41;;;0.53;100.00
35519;BME280;21627;48.216;16.482;2024-01-30T07:40:01;101706.75;;;0.52;100.00
35519;BME280;21627;48.216;16.482;2024-01-30T07:42:29;101709.38;;;0.65;100.00
35519;BME280;21627;48.216;16.482;2024-01-30T07:44:56;101702.94;;;0.70;100.00
35519;BME280;21627;48.216;16.482;2024-01-30T07:47:23;101689.69;;;0.74;100.00
35519;BME280;21627;48.216;16.482;2024-01-30T07:49:50;101701.84;;;0.78;100.00
35519;BME280;21627;48.216;16.482;2024-01-30T07:52:18;101700.28;;;0.80;100.00
35519;BME280;21627;48.216;16.482;2024-01-30T07:55:46;101702.06;;;0.81;100.00
35519;BME280;21627;48.216;16.482;2024-01-30T07:58:13;101695.50;;;0.85;100.00
35519;BME280;21627;48.216;16.482;2024-01-30T08:00:41;101697.50;;;0.89;100.00
35519;BME280;21627;48.216;16.482;2024-01-30T08:03:08;101701.25;;;0.94;100.00
35519;BME280;21627;48.216;16.482;2024-01-30T08:05:35;101704.75;;;1.08;100.00
35519;BME280;21627;48.216;16.482;2024-01-30T08:08:03;101702.78;;;1.04;100.00
35519;BME280;21627;48.216;16.482;2024-01-30T08:10:30;101700.88;;;1.13;100.00
35519;BME280;21627;48.216;16.482;2024-01-30T08:12:57;101706.28;;;1.18;100.00
35519;BME280;21627;48.216;16.482;2024-01-30T08:15:24;101702.81;;;1.29;100.00
35519;BME280;21627;48.216;16.482;2024-01-30T08:17:51;101704.69;;;1.32;100.00
35519;BME280;21627;48.216;16.482;2024-01-30T08:20:25;101713.63;;;1.38;100.00
35519;BME280;21627;48.216;16.482;2024-01-30T08:22:52;101714.06;;;1.44;100.00
35519;BME280;21627;48.216;16.482;2024-01-30T08:25:20;101707.69;;;1.51;100.00
35519;BME280;21627;48.216;16.482;2024-01-30T08:27:47;101706.25;;;1.55;100.00
35519;BME280;21627;48.216;16.482;2024-01-30T08:30:14;101711.75;;;1.61;100.00
35519;BME280;21627;48.216;16.482;2024-01-30T08:32:42;101712.63;;;1.61;100.00
35519;BME280;21627;48.216;16.482;2024-01-30T08:35:09;101713.94;;;1.68;100.00
35519;BME280;21627;48.216;16.482;2024-01-30T08:37:36;101708.69;;;1.78;100.00
35519;BME280;21627;48.216;16.482;2024-01-30T08:40:07;101712.84;;;1.89;100.00
35519;BME280;21627;48.216;16.482;2024-01-30T08:42:35;101706.16;;;1.91;100.00
35519;BME280;21627;48.216;16.482;2024-01-30T08:45:04;101714.44;;;2.01;100.00
35519;BME280;21627;48.216;16.482;2024-01-30T08:47:31;101718.59;;;2.12;100.00
35519;BME280;21627;48.216;16.482;2024-01-30T08:50:00;101704.22;;;2.14;100.00
35519;BME280;21627;48.216;16.482;2024-01-30T08:52:27;101706.41;;;2.21;100.00
35519;BME280;21627;48.216;16.482;2024-01-30T08:54:54;101706.81;;;2.41;100.00
35519;BME280;21627;48.216;16.482;2024-01-30T08:57:21;101709.06;;;2.49;100.00
35519;BME280;21627;48.216;16.482;2024-01-30T08:59:49;101712.31;;;2.60;100.00
35519;BME280;21627;48.216;16.482;2024-01-30T09:02:16;101709.16;;;2.77;100.00
35519;BME280;21627;48.216;16.482;2024-01-30T09:04:45;101709.03;;;2.89;100.00
35519;BME280;21627;48.216;16.482;2024-01-30T09:07:12;101699.22;;;2.95;100.00
35519;BME280;21627;48.216;16.482;2024-01-30T09:09:41;101713.81;;;3.11;100.00
35519;BME280;21627;48.216;16.482;2024-01-30T09:12:09;101694.34;;;3.13;100.00
35519;BME280;21627;48.216;16.482;2024-01-30T09:14:39;101717.13;;;3.23;100.00
35519;BME280;21627;48.216;16.482;2024-01-30T09:17:08;101707.88;;;3.25;100.00
35519;BME280;21627;48.216;16.482;2024-01-30T09:19:35;101707.19;;;3.28;100.00
35519;BME280;21627;48.216;16.482;2024-01-30T09:22:03;101711.88;;;3.35;100.00
35519;BME280;21627;48.216;16.482;2024-01-30T09:24:30;101717.88;;;3.36;100.00
35519;BME280;21627;48.216;16.482;2024-01-30T09:26:57;101713.41;;;3.46;100.00
35519;BME280;21627;48.216;16.482;2024-01-30T09:29:25;101720.81;;;3.57;100.00
35519;BME280;21627;48.216;16.482;2024-01-30T09:31:52;101724.97;;;3.55;100.00
35519;BME280;21627;48.216;16.482;2024-01-30T09:34:19;101710.41;;;3.54;100.00
35519;BME280;21627;48.216;16.482;2024-01-30T09:36:47;101728.38;;;3.68;100.00
35519;BME280;21627;48.216;16.482;2024-01-30T09:39:14;101718.84;;;3.66;100.00
35519;BME280;21627;48.216;16.482;2024-01-30T09:41:55;101710.53;;;3.70;100.00
35519;BME280;21627;48.216;16.482;2024-01-30T09:44:26;101724.03;;;3.82;100.00
35519;BME280;21627;48.216;16.482;2024-01-30T09:46:55;101713.97;;;3.85;100.00
35519;BME280;21627;48.216;16.482;2024-01-30T09:49:22;101706.25;;;3.99;100.00
35519;BME280;21627;48.216;16.482;2024-01-30T09:51:52;101718.69;;;4.07;100.00
35519;BME280;21627;48.216;16.482;2024-01-30T09:54:20;101717.81;;;4.07;100.00
35519;BME280;21627;48.216;16.482;2024-01-30T09:56:48;101700.00;;;4.08;100.00
35519;BME280;21627;48.216;16.482;2024-01-30T09:59:15;101721.94;;;4.20;100.00
35519;BME280;21627;48.216;16.482;2024-01-30T10:01:43;101708.28;;;4.19;100.00
35519;BME280;21627;48.216;16.482;2024-01-30T10:04:10;101709.69;;;4.29;100.00
35519;BME280;21627;48.216;16.482;2024-01-30T10:06:37;101711.31;;;4.43;100.00
35519;BME280;21627;48.216;16.482;2024-01-30T10:09:05;101708.88;;;4.45;100.00
35519;BME280;21627;48.216;16.482;2024-01-30T10:11:32;101712.63;;;4.66;100.00
35519;BME280;21627;48.216;16.482;2024-01-30T10:14:00;101701.41;;;4.64;100.00
35519;BME280;21627;48.216;16.482;2024-01-30T10:16:28;101697.25;;;4.66;100.00
35519;BME280;21627;48.216;16.482;2024-01-30T10:18:55;101691.59;;;4.72;100.00
35519;BME280;21627;48.216;16.482;2024-01-30T10:21:23;101700.47;;;4.78;100.00
35519;BME280;21627;48.216;16.482;2024-01-30T10:23:50;101700.66;;;4.82;100.00
35519;BME280;21627;48.216;16.482;2024-01-30T10:26:17;101697.13;;;4.80;100.00
35519;BME280;21627;48.216;16.482;2024-01-30T10:28:44;101689.28;;;4.93;100.00
35519;BME280;21627;48.216;16.482;2024-01-30T10:31:17;101696.13;;;5.09;100.00
35519;BME280;21627;48.216;16.482;2024-01-30T10:33:45;101673.63;;;5.19;100.00
35519;BME280;21627;48.216;16.482;2024-01-30T10:36:16;101690.44;;;5.31;100.00
35519;BME280;21627;48.216;16.482;2024-01-30T10:38:50;101689.03;;;5.19;100.00
35519;BME280;21627;48.216;16.482;2024-01-30T10:41:21;101693.09;;;5.16;100.00
35519;BME280;21627;48.216;16.482;2024-01-30T10:44:02;101684.59;;;5.33;100.00
35519;BME280;21627;48.216;16.482;2024-01-30T10:46:39;101666.88;;;5.38;100.00
35519;BME280;21627;48.216;16.482;2024-01-30T10:49:09;101665.69;;;5.48;100.00
35519;BME280;21627;48.216;16.482;2024-01-30T10:51:38;101660.47;;;5.62;100.00
35519;BME280;21627;48.216;16.482;2024-01-30T10:54:06;101671.75;;;5.66;100.00
35519;BME280;21627;48.216;16.482;2024-01-30T10:56:35;101648.25;;;5.58;100.00
35519;BME280;21627;48.216;16.482;2024-01-30T10:59:02;101664.63;;;5.60;100.00
35519;BME280;21627;48.216;16.482;2024-01-30T11:01:30;101659.38;;;5.75;100.00
35519;BME280;21627;48.216;16.482;2024-01-30T11:03:58;101652.94;;;5.83;100.00
35519;BME280;21627;48.216;16.482;2024-01-30T11:06:26;101654.56;;;5.98;100.00
35519;BME280;21627;48.216;16.482;2024-01-30T11:09:04;101663.00;;;6.13;100.00
35519;BME280;21627;48.216;16.482;2024-01-30T11:11:58;101644.44;;;6.19;100.00
35519;BME280;21627;48.216;16.482;2024-01-30T11:14:31;101654.47;;;6.32;100.00
35519;BME280;21627;48.216;16.482;2024-01-30T11:17:00;101651.25;;;6.54;99.35
35519;BME280;21627;48.216;16.482;2024-01-30T11:19:30;101642.72;;;6.73;100.00
35519;BME280;21627;48.216;16.482;2024-01-30T11:21:59;101648.81;;;6.94;96.79
35519;BME280;21627;48.216;16.482;2024-01-30T11:24:28;101653.97;;;7.14;94.34
35519;BME280;21627;48.216;16.482;2024-01-30T11:27:01;101648.34;;;7.42;97.66
35519;BME280;21627;48.216;16.482;2024-01-30T11:29:30;101640.59;;;7.62;97.33
35519;BME280;21627;48.216;16.482;2024-01-30T11:31:58;101644.44;;;7.71;91.07
35519;BME280;21627;48.216;16.482;2024-01-30T11:34:26;101642.03;;;7.76;88.51
35519;BME280;21627;48.216;16.482;2024-01-30T11:36:57;101647.50;;;7.63;90.60
35519;BME280;21627;48.216;16.482;2024-01-30T11:39:26;101627.44;;;7.55;88.41
35519;BME280;21627;48.216;16.482;2024-01-30T11:41:54;101636.53;;;7.67;86.48
35519;BME280;21627;48.216;16.482;2024-01-30T11:44:22;101627.28;;;7.72;85.96
35519;BME280;21627;48.216;16.482;2024-01-30T11:46:51;101637.91;;;7.79;85.79
35519;BME280;21627;48.216;16.482;2024-01-30T11:49:19;101636.91;;;7.97;86.82
35519;BME280;21627;48.216;16.482;2024-01-30T11:51:47;101636.78;;;7.94;83.12
35519;BME280;21627;48.216;16.482;2024-01-30T11:54:17;101631.88;;;8.00;84.85
35519;BME280;21627;48.216;16.482;2024-01-30T11:56:44;101616.19;;;7.94;83.72
35519;BME280;21627;48.216;16.482;2024-01-30T11:59:12;101621.00;;;8.07;83.01
35519;BME280;21627;48.216;16.482;2024-01-30T12:01:39;101629.09;;;8.16;84.46
35519;BME280;21627;48.216;16.482;2024-01-30T12:04:07;101620.47;;;8.16;84.23
35519;BME280;21627;48.216;16.482;2024-01-30T12:06:37;101625.63;;;8.37;83.91
35519;BME280;21627;48.216;16.482;2024-01-30T12:09:05;101623.84;;;8.36;82.40
35519;BME280;21627;48.216;16.482;2024-01-30T12:11:49;101612.59;;;8.34;81.23
35519;BME280;21627;48.216;16.482;2024-01-30T12:14:17;101618.97;;;8.42;80.75
35519;BME280;21627;48.216;16.482;2024-01-30T12:16:48;101615.19;;;8.55;82.24
35519;BME280;21627;48.216;16.482;2024-01-30T12:19:25;101605.19;;;8.64;81.21
35519;BME280;21627;48.216;16.482;2024-01-30T12:21:58;101609.41;;;8.84;79.85
35519;BME280;21627;48.216;16.482;2024-01-30T12:24:29;101601.50;;;9.04;78.22
35519;BME280;21627;48.216;16.482;2024-01-30T12:27:00;101608.09;;;9.20;78.17
35519;BME280;21627;48.216;16.482;2024-01-30T12:29:27;101594.19;;;9.40;77.12
35519;BME280;21627;48.216;16.482;2024-01-30T12:32:00;101600.13;;;9.63;74.23
35519;BME280;21627;48.216;16.482;2024-01-30T12:34:27;101586.59;;;9.70;72.32
35519;BME280;21627;48.216;16.482;2024-01-30T12:36:55;101599.56;;;9.99;73.35
35519;BME280;21627;48.216;16.482;2024-01-30T12:39:22;101591.66;;;9.94;68.55
35519;BME280;21627;48.216;16.482;2024-01-30T12:41:51;101597.69;;;10.21;69.13
35519;BME280;21627;48.216;16.482;2024-01-30T12:44:18;101587.13;;;10.14;69.73